Time;durP1;ratioP1;P1;durP2;ratioP2;P2;SDS_P1;SDS_P2;PMS_P1;PMS_P2;Temp;Humidity;BMP_temperature;BMP_pressure;BME280_temperature;BME280_humidity;BME280_pressure;Samples;Min_cycle;Max_cycle;Signal;HPM_P1;HPM_P2
2021/06/11 00:00:41;;;;;;;32.83;11.18;;;19.60;91.70;;;;;;5104215;28;20669;-75
2021/06/11 00:03:10;;;;;;;28.20;11.57;;;19.60;91.80;;;;;;5102462;28;20245;-74
2021/06/11 00:05:36;;;;;;;21.17;11.00;;;19.60;92.00;;;;;;5101872;28;20192;-76
2021/06/11 00:08:03;;;;;;;20.05;11.32;;;19.50;92.10;;;;;;5105957;28;20753;-74
2021/06/11 00:10:30;;;;;;;21.17;11.23;;;19.60;92.20;;;;;;5105227;28;20207;-76
2021/06/11 00:12:57;;;;;;;16.90;10.57;;;19.50;92.30;;;;;;5105911;28;20201;-75
2021/06/11 00:15:24;;;;;;;25.63;11.20;;;19.50;92.60;;;;;;5103744;28;20209;-72
2021/06/11 00:17:51;;;;;;;30.92;12.95;;;19.50;92.70;;;;;;5106227;28;21124;-74
2021/06/11 00:20:22;;;;;;;23.60;12.20;;;19.50;92.90;;;;;;5108032;28;20201;-74
2021/06/11 00:22:49;;;;;;;22.65;13.68;;;19.50;92.90;;;;;;5103929;28;20220;-75
2021/06/11 00:25:20;;;;;;;21.58;11.70;;;19.50;93.10;;;;;;5101279;28;20205;-73
2021/06/11 00:27:47;;;;;;;21.35;12.20;;;19.50;93.20;;;;;;5102464;28;20207;-75
2021/06/11 00:30:15;;;;;;;24.30;13.57;;;19.50;93.20;;;;;;5102126;28;20219;-76
2021/06/11 00:32:42;;;;;;;22.30;14.05;;;19.50;93.30;;;;;;5103959;28;20296;-76
2021/06/11 00:35:09;;;;;;;24.27;14.63;;;19.40;93.40;;;;;;5105578;28;20221;-75
2021/06/11 00:37:37;;;;;;;27.50;15.48;;;19.50;93.60;;;;;;5106141;28;20211;-75
2021/06/11 00:40:06;;;;;;;21.75;13.57;;;19.40;93.60;;;;;;5105422;28;20196;-76
2021/06/11 00:42:33;;;;;;;23.40;14.57;;;19.40;93.80;;;;;;5104588;28;20266;-74
2021/06/11 00:45:00;;;;;;;21.75;14.50;;;19.40;93.90;;;;;;5102278;28;20323;-75
2021/06/11 00:47:26;;;;;;;22.73;14.93;;;19.40;94.00;;;;;;5105023;28;20715;-76
2021/06/11 00:49:52;;;;;;;25.05;14.73;;;19.40;94.10;;;;;;5103410;28;20204;-76
2021/06/11 00:52:19;;;;;;;22.52;14.77;;;19.40;94.20;;;;;;5106586;28;20290;-76
2021/06/11 00:54:47;;;;;;;27.83;16.52;;;19.40;94.30;;;;;;5105930;28;20220;-76
2021/06/11 00:57:13;;;;;;;31.52;15.57;;;19.40;94.40;;;;;;5105960;28;20254;-75
2021/06/11 00:59:41;;;;;;;22.63;13.95;;;19.40;94.50;;;;;;5106483;28;20204;-75
2021/06/11 01:02:07;;;;;;;24.45;14.90;;;19.40;94.60;;;;;;5104275;28;20683;-75
2021/06/11 01:04:34;;;;;;;26.55;16.67;;;19.40;94.70;;;;;;5102493;28;20201;-73
2021/06/11 01:07:02;;;;;;;33.38;14.40;;;19.30;94.80;;;;;;5104694;28;20201;-74
2021/06/11 01:09:31;;;;;;;26.48;14.30;;;19.30;94.90;;;;;;5103089;28;20756;-75
2021/06/11 01:11:59;;;;;;;27.83;15.43;;;19.30;95.00;;;;;;5104487;28;21037;-74
2021/06/11 01:14:26;;;;;;;29.92;15.13;;;19.30;95.10;;;;;;5103975;28;20807;-75
2021/06/11 01:16:52;;;;;;;27.02;15.23;;;19.30;95.20;;;;;;5106758;28;20209;-75
2021/06/11 01:19:22;;;;;;;33.10;15.20;;;19.30;95.30;;;;;;5104274;28;20205;-74
2021/06/11 01:21:54;;;;;;;26.65;14.15;;;19.30;95.40;;;;;;5104057;28;20197;-75
2021/06/11 01:24:25;;;;;;;28.67;14.77;;;19.30;95.50;;;;;;5102315;28;20208;-75
2021/06/11 01:26:54;;;;;;;31.50;16.30;;;19.30;95.50;;;;;;5103502;28;20262;-76
2021/06/11 01:29:25;;;;;;;30.45;15.32;;;19.30;95.50;;;;;;5104752;28;20313;-75
2021/06/11 01:31:55;;;;;;;31.40;16.42;;;19.30;95.60;;;;;;5102447;28;20219;-75
2021/06/11 01:34:25;;;;;;;39.78;15.43;;;19.20;95.70;;;;;;5103718;28;20198;-76
2021/06/11 01:36:54;;;;;;;29.80;15.73;;;19.20;95.90;;;;;;5103702;28;20205;-75
2021/06/11 01:39:22;;;;;;;42.95;19.40;;;19.20;96.00;;;;;;5101205;28;20205;-77
2021/06/11 01:41:52;;;;;;;38.03;19.05;;;19.20;96.10;;;;;;5104955;28;20205;-75
2021/06/11 01:44:19;;;;;;;39.13;17.50;;;19.20;96.20;;;;;;5104684;28;20649;-75
2021/06/11 01:46:48;;;;;;;40.47;17.65;;;19.20;96.30;;;;;;5103969;28;20193;-74
2021/06/11 01:49:16;;;;;;;47.15;18.63;;;19.20;96.40;;;;;;5130756;27;20285;-75
2021/06/11 01:51:44;;;;;;;41.78;18.10;;;19.20;96.50;;;;;;5105907;28;20229;-73
2021/06/11 01:54:12;;;;;;;56.20;19.90;;;19.20;96.60;;;;;;5108688;28;20209;-74
2021/06/11 01:56:40;;;;;;;46.80;20.05;;;19.20;96.70;;;;;;5107060;28;20228;-76
2021/06/11 01:59:09;;;;;;;47.60;21.38;;;19.10;96.80;;;;;;5109141;28;20997;-74
2021/06/11 02:01:35;;;;;;;49.03;20.58;;;19.10;96.90;;;;;;5106110;28;20262;-74
2021/06/11 02:04:04;;;;;;;45.42;19.85;;;19.10;97.10;;;;;;5108736;28;20209;-73
2021/06/11 02:06:31;;;;;;;49.15;20.80;;;19.10;97.20;;;;;;5104178;28;20228;-75
2021/06/11 02:08:58;;;;;;;50.55;20.55;;;19.10;97.20;;;;;;5107045;28;20205;-74
2021/06/11 02:11:25;;;;;;;46.42;20.65;;;19.00;97.30;;;;;;5105981;28;20197;-74
2021/06/11 02:13:54;;;;;;;47.15;20.15;;;18.90;97.50;;;;;;5106031;28;20194;-74
2021/06/11 02:16:25;;;;;;;49.97;19.13;;;19.00;97.70;;;;;;5104719;28;21013;-76
2021/06/11 02:18:53;;;;;;;41.30;18.80;;;18.90;97.70;;;;;;5105491;28;20238;-74
2021/06/11 02:21:20;;;;;;;38.30;17.65;;;18.90;97.80;;;;;;5106662;28;20193;-74
2021/06/11 02:23:46;;;;;;;57.55;20.35;;;18.90;97.80;;;;;;5105997;28;20255;-74
2021/06/11 02:26:14;;;;;;;49.72;20.33;;;18.80;97.80;;;;;;5103763;28;20206;-76
2021/06/11 02:28:41;;;;;;;44.85;20.42;;;18.80;97.90;;;;;;5106313;28;20254;-73
2021/06/11 02:31:07;;;;;;;49.70;22.40;;;18.80;98.00;;;;;;5109191;28;20729;-72
2021/06/11 02:33:36;;;;;;;46.53;21.40;;;18.80;98.00;;;;;;5109914;28;20212;-75
2021/06/11 02:36:02;;;;;;;48.25;22.90;;;18.80;98.10;;;;;;5105759;28;20585;-76
2021/06/11 02:38:29;;;;;;;48.67;22.33;;;18.80;98.20;;;;;;5107524;28;20235;-72
2021/06/11 02:40:57;;;;;;;45.10;22.35;;;18.80;98.20;;;;;;5104516;28;20629;-75
2021/06/11 02:43:25;;;;;;;43.55;22.30;;;18.80;98.20;;;;;;5107455;28;20209;-74
2021/06/11 02:45:57;;;;;;;50.05;24.13;;;18.80;98.20;;;;;;5106686;28;20200;-74
2021/06/11 02:48:28;;;;;;;49.78;23.73;;;18.70;98.30;;;;;;5108760;28;20254;-74
2021/06/11 02:51:02;;;;;;;46.42;23.52;;;18.70;98.30;;;;;;5107745;28;20248;-75
2021/06/11 02:53:30;;;;;;;42.13;23.17;;;18.70;98.40;;;;;;5104357;28;20232;-74
2021/06/11 02:56:01;;;;;;;43.97;22.88;;;18.70;98.40;;;;;;5103259;27;20236;-75
2021/06/11 02:58:37;;;;;;;48.90;24.08;;;18.70;98.50;;;;;;5107125;28;20217;-75
2021/06/11 03:01:06;;;;;;;43.60;23.13;;;18.70;98.50;;;;;;5102743;28;20673;-75
2021/06/11 03:03:36;;;;;;;44.95;24.13;;;18.70;98.60;;;;;;5107291;28;20205;-74
2021/06/11 03:06:05;;;;;;;54.83;25.20;;;18.60;98.50;;;;;;5103092;28;20193;-74
2021/06/11 03:08:36;;;;;;;56.20;25.85;;;18.60;98.60;;;;;;5104711;28;20205;-74
2021/06/11 03:11:06;;;;;;;49.05;24.23;;;18.60;98.60;;;;;;5105360;28;20280;-75
2021/06/11 03:13:33;;;;;;;48.70;24.02;;;18.60;98.70;;;;;;5105722;28;20193;-74
2021/06/11 03:16:00;;;;;;;48.80;25.73;;;18.60;98.80;;;;;;5100496;28;20423;-75
2021/06/11 03:18:31;;;;;;;52.75;25.05;;;19.00;98.90;;;;;;5100737;28;20976;-74
2021/06/11 03:21:03;;;;;;;46.17;25.08;;;19.30;98.30;;;;;;5119387;27;20977;-75
2021/06/11 03:23:36;;;;;;;45.08;24.52;;;19.40;97.80;;;;;;5104449;28;20427;-75
2021/06/11 03:26:04;;;;;;;40.28;22.05;;;19.50;97.30;;;;;;5104483;28;20427;-75
2021/06/11 03:28:36;;;;;;;35.75;21.30;;;19.60;97.00;;;;;;5103407;28;20424;-74
2021/06/11 03:31:04;;;;;;;37.03;21.40;;;19.70;96.60;;;;;;5104694;28;20415;-75
2021/06/11 03:33:34;;;;;;;33.00;19.90;;;19.70;96.40;;;;;;5105826;28;20419;-76
2021/06/11 03:36:09;;;;;;;46.90;17.90;;;19.70;96.20;;;;;;5105075;28;20444;-76
2021/06/11 03:38:39;;;;;;;40.07;19.23;;;19.70;96.00;;;;;;5104440;28;21588;-74
2021/06/11 03:41:07;;;;;;;54.92;18.05;;;19.70;96.30;;;;;;5102362;28;20420;-74
2021/06/11 03:43:34;;;;;;;48.75;18.77;;;19.70;95.90;;;;;;5100550;28;20420;-74
2021/06/11 03:46:02;;;;;;;40.70;19.00;;;19.60;95.90;;;;;;5104333;28;20416;-76
2021/06/11 03:48:30;;;;;;;48.22;18.75;;;19.60;96.10;;;;;;5104393;28;20510;-73
2021/06/11 03:50:59;;;;;;;57.83;20.30;;;19.60;96.20;;;;;;5104482;28;20412;-74
2021/06/11 03:53:27;;;;;;;39.35;20.63;;;19.60;96.30;;;;;;5104071;28;20911;-74
2021/06/11 03:56:00;;;;;;;68.95;20.98;;;19.50;96.60;;;;;;5103805;28;20433;-73
2021/06/11 03:58:30;;;;;;;51.90;21.60;;;19.50;96.90;;;;;;5101392;28;20428;-75
2021/06/11 04:00:59;;;;;;;46.85;22.85;;;19.50;97.10;;;;;;5102963;28;20420;-73
2021/06/11 04:03:25;;;;;;;42.90;22.98;;;19.50;97.30;;;;;;5103157;28;20420;-74
2021/06/11 04:06:11;;;;;;;55.40;24.63;;;19.50;97.50;;;;;;5102839;28;20768;-74
2021/06/11 04:08:37;;;;;;;59.65;24.95;;;19.50;98.00;;;;;;5104074;28;20449;-76
2021/06/11 04:11:07;;;;;;;44.67;25.23;;;19.60;97.80;;;;;;5104907;28;20430;-75
2021/06/11 04:13:44;;;;;;;67.78;26.55;;;19.60;97.90;;;;;;5103256;28;20576;-73
2021/06/11 04:16:17;;;;;;;63.88;26.17;;;19.60;97.90;;;;;;5104226;28;20946;-74
2021/06/11 04:18:45;;;;;;;55.05;27.10;;;19.70;98.10;;;;;;5101451;28;20455;-74
2021/06/11 04:21:18;;;;;;;62.95;27.75;;;19.70;98.20;;;;;;5103576;28;20419;-74
2021/06/11 04:23:45;;;;;;;71.50;27.75;;;19.70;98.20;;;;;;5100822;28;20430;-74
2021/06/11 04:26:14;;;;;;;76.85;29.20;;;19.70;98.20;;;;;;5102431;28;20412;-73
2021/06/11 04:28:42;;;;;;;71.73;29.43;;;19.70;98.30;;;;;;5104716;28;20420;-73
2021/06/11 04:31:08;;;;;;;77.47;29.63;;;19.70;98.40;;;;;;5104655;28;20425;-73
2021/06/11 04:33:35;;;;;;;91.57;30.17;;;19.80;98.60;;;;;;5101041;28;20437;-74
2021/06/11 04:36:02;;;;;;;78.78;30.48;;;19.70;98.60;;;;;;5103108;28;20421;-74
2021/06/11 04:38:29;;;;;;;67.63;29.92;;;19.70;98.80;;;;;;5106386;28;20836;-73
2021/06/11 04:40:56;;;;;;;73.13;32.05;;;19.70;99.00;;;;;;5102648;28;20426;-75
2021/06/11 04:43:24;;;;;;;65.68;30.75;;;19.70;99.10;;;;;;5103768;28;20563;-73
2021/06/11 04:45:51;;;;;;;76.18;31.23;;;19.80;99.20;;;;;;5104564;28;20916;-73
2021/06/11 04:48:18;;;;;;;71.20;32.35;;;19.80;99.20;;;;;;5136187;27;20420;-72
2021/06/11 04:50:44;;;;;;;71.90;32.67;;;19.70;99.40;;;;;;5103508;28;21383;-74
2021/06/11 04:53:11;;;;;;;73.85;32.83;;;19.70;99.50;;;;;;5103900;28;20512;-74
2021/06/11 04:55:37;;;;;;;72.45;32.03;;;19.70;99.70;;;;;;5104413;28;20419;-74
2021/06/11 04:58:03;;;;;;;69.70;31.20;;;19.80;99.80;;;;;;5102206;28;20446;-71
2021/06/11 05:00:31;;;;;;;67.50;31.42;;;19.80;99.80;;;;;;5101367;28;20826;-77
2021/06/11 05:02:58;;;;;;;68.32;30.85;;;19.80;99.90;;;;;;5102056;28;20465;-72
2021/06/11 05:05:24;;;;;;;68.10;31.37;;;19.80;99.90;;;;;;5103207;28;20522;-74
2021/06/11 05:07:51;;;;;;;65.80;30.87;;;19.80;99.90;;;;;;5105764;28;20912;-72
2021/06/11 05:10:18;;;;;;;61.95;29.77;;;19.80;99.90;;;;;;5097740;28;20423;-71
2021/06/11 05:12:44;;;;;;;58.42;28.67;;;19.80;99.90;;;;;;5104003;28;20419;-73
2021/06/11 05:15:12;;;;;;;55.08;27.90;;;19.90;99.90;;;;;;5101652;28;20907;-73
2021/06/11 05:17:39;;;;;;;53.08;26.25;;;19.90;99.90;;;;;;5104155;28;20420;-73
2021/06/11 05:20:08;;;;;;;49.67;25.80;;;19.90;99.90;;;;;;5102328;28;20433;-72
2021/06/11 05:22:34;;;;;;;43.75;23.40;;;19.90;99.90;;;;;;5103646;28;20428;-72
2021/06/11 05:25:01;;;;;;;43.38;24.10;;;19.90;99.90;;;;;;5103039;28;20943;-77
2021/06/11 05:27:28;;;;;;;45.75;24.88;;;19.90;99.90;;;;;;5106836;28;20471;-73
2021/06/11 05:29:54;;;;;;;42.85;23.90;;;19.90;99.90;;;;;;5106604;28;20431;-76
2021/06/11 05:32:20;;;;;;;38.17;20.52;;;20.00;99.90;;;;;;5105155;28;20895;-73
2021/06/11 05:34:48;;;;;;;37.03;21.05;;;20.00;99.90;;;;;;5107066;28;20420;-76
2021/06/11 05:37:14;;;;;;;35.88;20.52;;;20.00;99.90;;;;;;5108635;28;20463;-74
2021/06/11 05:39:41;;;;;;;40.45;21.77;;;20.00;99.90;;;;;;5106253;28;20420;-76
2021/06/11 05:42:08;;;;;;;36.08;20.63;;;20.00;99.90;;;;;;5109468;28;20424;-72
2021/06/11 05:44:34;;;;;;;33.78;19.10;;;19.90;99.90;;;;;;5102607;27;20439;-74
2021/06/11 05:47:00;;;;;;;29.48;16.73;;;19.90;99.90;;;;;;5108418;28;20986;-73
2021/06/11 05:49:27;;;;;;;28.33;16.90;;;19.90;99.90;;;;;;5106306;28;20779;-73
2021/06/11 05:51:54;;;;;;;29.42;17.60;;;19.90;99.90;;;;;;5104660;28;20423;-74
2021/06/11 05:54:20;;;;;;;28.88;16.33;;;19.90;99.90;;;;;;5108011;28;20798;-74
2021/06/11 05:56:48;;;;;;;28.92;14.25;;;19.90;99.90;;;;;;5107002;28;20426;-74
2021/06/11 05:59:15;;;;;;;22.63;14.07;;;20.00;99.90;;;;;;5109713;28;20453;-72
2021/06/11 06:01:41;;;;;;;27.70;14.27;;;20.00;99.90;;;;;;5105865;28;20734;-74
2021/06/11 06:04:07;;;;;;;23.80;14.38;;;20.10;99.90;;;;;;5107421;28;20420;-72
2021/06/11 06:06:33;;;;;;;25.08;14.45;;;20.10;99.70;;;;;;5101443;28;20423;-72
2021/06/11 06:09:01;;;;;;;25.35;15.23;;;20.10;99.70;;;;;;5108662;28;20431;-74
2021/06/11 06:11:27;;;;;;;24.98;14.45;;;20.20;99.70;;;;;;5101793;28;20459;-71
2021/06/11 06:13:54;;;;;;;24.40;13.93;;;20.20;99.60;;;;;;5106143;28;20412;-73
2021/06/11 06:16:20;;;;;;;24.23;13.48;;;20.20;99.50;;;;;;5109597;28;20424;-74
2021/06/11 06:18:47;;;;;;;22.63;11.70;;;20.20;99.60;;;;;;5111108;28;20435;-74
2021/06/11 06:21:13;;;;;;;16.52;10.70;;;20.20;99.40;;;;;;5111650;28;20408;-73
2021/06/11 06:23:40;;;;;;;17.38;10.40;;;20.10;99.40;;;;;;5111032;28;20414;-74
2021/06/11 06:26:07;;;;;;;15.93;9.90;;;20.10;99.50;;;;;;5109080;28;20415;-74
2021/06/11 06:28:34;;;;;;;15.68;10.27;;;20.10;99.80;;;;;;5108737;28;20782;-72
2021/06/11 06:31:00;;;;;;;18.90;11.38;;;20.00;99.50;;;;;;5108929;28;20415;-76
2021/06/11 06:33:27;;;;;;;18.65;11.13;;;20.00;99.50;;;;;;5107765;27;20428;-74
2021/06/11 06:35:53;;;;;;;20.75;11.77;;;20.00;99.80;;;;;;5107595;28;20450;-73
2021/06/11 06:38:19;;;;;;;18.77;11.05;;;20.00;99.90;;;;;;5110534;28;20941;-76
2021/06/11 06:40:49;;;;;;;22.52;11.88;;;20.00;99.90;;;;;;5109650;28;20419;-74
2021/06/11 06:43:16;;;;;;;18.42;10.98;;;20.00;99.90;;;;;;5110803;28;20427;-75
2021/06/11 06:45:43;;;;;;;17.20;10.57;;;20.00;99.90;;;;;;5108907;27;20500;-73
2021/06/11 06:48:09;;;;;;;18.45;11.23;;;20.10;99.90;;;;;;5109289;28;20485;-73
2021/06/11 06:50:38;;;;;;;19.50;11.48;;;20.10;99.90;;;;;;5108460;28;21403;-74
2021/06/11 06:53:05;;;;;;;20.17;11.10;;;20.10;99.90;;;;;;5108245;28;20908;-73
2021/06/11 06:55:31;;;;;;;16.23;11.02;;;20.10;99.60;;;;;;5107848;27;20477;-74
2021/06/11 06:57:58;;;;;;;17.30;10.52;;;20.20;99.50;;;;;;5108943;28;20451;-75
2021/06/11 07:00:26;;;;;;;16.35;10.77;;;20.20;99.40;;;;;;5109897;28;20424;-76
2021/06/11 07:02:53;;;;;;;16.50;10.00;;;20.20;99.60;;;;;;5106631;28;20426;-77
2021/06/11 07:05:20;;;;;;;16.03;10.53;;;20.10;99.50;;;;;;5109492;28;20430;-76
2021/06/11 07:07:47;;;;;;;16.98;11.10;;;20.10;99.50;;;;;;5109125;28;20661;-79
2021/06/11 07:10:14;;;;;;;18.27;11.23;;;20.20;99.60;;;;;;5107452;28;20420;-74
2021/06/11 07:12:42;;;;;;;15.57;10.70;;;20.20;99.70;;;;;;5110650;27;20416;-75
2021/06/11 07:15:09;;;;;;;16.30;10.68;;;20.20;99.70;;;;;;5109212;28;20509;-75
2021/06/11 07:17:38;;;;;;;15.83;10.37;;;20.20;99.60;;;;;;5108909;28;20518;-74
2021/06/11 07:20:06;;;;;;;14.37;10.60;;;20.30;99.60;;;;;;5108293;28;20855;-75
2021/06/11 07:22:32;;;;;;;17.73;10.25;;;20.30;99.30;;;;;;5110001;28;20406;-74
2021/06/11 07:25:02;;;;;;;16.73;9.45;;;20.40;99.40;;;;;;5108472;28;20904;-77
2021/06/11 07:27:31;;;;;;;13.48;9.57;;;20.40;99.30;;;;;;5109654;28;20936;-77
2021/06/11 07:29:58;;;;;;;14.48;9.95;;;20.50;99.20;;;;;;5102258;27;20418;-77
2021/06/11 07:32:24;;;;;;;15.75;9.93;;;20.60;99.00;;;;;;5102614;28;20420;-76
2021/06/11 07:34:52;;;;;;;14.55;9.93;;;20.70;98.60;;;;;;5104366;28;20936;-77
2021/06/11 07:37:19;;;;;;;15.10;9.80;;;20.70;98.40;;;;;;5102354;28;20421;-75
2021/06/11 07:39:45;;;;;;;14.53;10.13;;;20.80;98.30;;;;;;5105434;28;20432;-75
2021/06/11 07:42:12;;;;;;;16.30;10.38;;;20.80;98.20;;;;;;5103844;28;20477;-75
2021/06/11 07:44:39;;;;;;;15.38;11.40;;;20.90;98.30;;;;;;5102412;28;22234;-73
2021/06/11 07:47:06;;;;;;;17.90;12.07;;;20.90;98.20;;;;;;5103070;28;20477;-75
2021/06/11 07:49:33;;;;;;;16.00;11.45;;;21.00;98.10;;;;;;5105493;28;20511;-75
2021/06/11 07:52:00;;;;;;;15.88;10.65;;;21.00;97.90;;;;;;5099051;28;20486;-74
2021/06/11 07:54:27;;;;;;;16.52;10.38;;;21.00;97.60;;;;;;5103594;28;20431;-74
2021/06/11 07:56:53;;;;;;;14.25;9.98;;;21.00;97.50;;;;;;5106842;28;21189;-75
2021/06/11 07:59:21;;;;;;;13.05;9.13;;;21.00;97.40;;;;;;5105750;28;20427;-76
2021/06/11 08:01:47;;;;;;;12.88;9.07;;;21.00;97.50;;;;;;5107242;28;20530;-75
2021/06/11 08:04:14;;;;;;;12.50;8.90;;;21.00;97.30;;;;;;5104031;28;20428;-75
2021/06/11 08:06:40;;;;;;;14.02;8.02;;;21.10;97.20;;;;;;5104889;28;20904;-74
2021/06/11 08:09:08;;;;;;;14.00;7.65;;;21.10;97.00;;;;;;5104803;28;20469;-74
2021/06/11 08:11:34;;;;;;;13.70;7.82;;;21.20;96.80;;;;;;5106614;28;20480;-73
2021/06/11 08:14:00;;;;;;;11.80;8.02;;;21.20;96.30;;;;;;5104671;28;20440;-74
2021/06/11 08:16:27;;;;;;;12.00;8.38;;;21.30;96.10;;;;;;5102829;28;20424;-74
2021/06/11 08:18:53;;;;;;;12.35;7.38;;;21.30;96.00;;;;;;5105075;28;20431;-76
2021/06/11 08:21:20;;;;;;;12.17;7.23;;;21.40;95.70;;;;;;5101498;28;20433;-77
2021/06/11 08:23:46;;;;;;;11.02;7.47;;;21.40;95.50;;;;;;5105568;28;20481;-76
2021/06/11 08:26:14;;;;;;;12.88;7.07;;;21.40;95.00;;;;;;5101861;28;20945;-75
2021/06/11 08:28:41;;;;;;;13.93;7.40;;;21.40;95.00;;;;;;5102982;28;20843;-74
2021/06/11 08:31:07;;;;;;;9.88;7.40;;;21.40;94.80;;;;;;5102754;28;20427;-75
2021/06/11 08:33:34;;;;;;;10.02;7.20;;;21.40;94.40;;;;;;5096272;28;20494;-74
2021/06/11 08:36:01;;;;;;;11.85;7.90;;;21.30;94.50;;;;;;5101248;28;20422;-74
2021/06/11 08:38:27;;;;;;;11.50;7.80;;;21.10;94.60;;;;;;5098678;28;20423;-74
2021/06/11 08:40:54;;;;;;;10.50;7.30;;;21.10;95.00;;;;;;5101936;28;20453;-76
2021/06/11 08:43:22;;;;;;;12.02;7.25;;;21.00;95.20;;;;;;5099313;27;20500;-73
2021/06/11 08:45:50;;;;;;;11.30;6.80;;;21.00;95.30;;;;;;5104564;28;20776;-74
2021/06/11 08:48:17;;;;;;;12.63;6.90;;;21.00;95.30;;;;;;5105477;28;20424;-78
2021/06/11 08:50:43;;;;;;;12.02;7.90;;;21.10;95.40;;;;;;5105336;28;20452;-74
2021/06/11 08:53:12;;;;;;;13.95;7.15;;;21.10;95.00;;;;;;5103331;28;20492;-76
2021/06/11 08:55:39;;;;;;;11.57;7.38;;;21.10;95.00;;;;;;5104266;28;20415;-75
2021/06/11 08:58:06;;;;;;;10.95;7.53;;;21.00;95.10;;;;;;5102508;28;20424;-74
2021/06/11 09:00:34;;;;;;;18.92;7.38;;;21.00;95.20;;;;;;5096921;28;20460;-75
2021/06/11 09:03:11;;;;;;;11.85;7.00;;;21.00;95.40;;;;;;5099062;28;20953;-74
2021/06/11 09:05:38;;;;;;;11.30;6.65;;;21.00;95.40;;;;;;5102614;28;20419;-77
2021/06/11 09:08:16;;;;;;;10.82;6.53;;;21.10;95.40;;;;;;5100030;28;20426;-75
2021/06/11 09:10:43;;;;;;;18.80;7.10;;;21.20;95.30;;;;;;5102557;28;20420;-75
2021/06/11 09:13:10;;;;;;;13.43;7.78;;;21.40;95.20;;;;;;5099965;28;20427;-75
2021/06/11 09:15:38;;;;;;;12.80;7.78;;;21.40;94.70;;;;;;5104155;28;20480;-74
2021/06/11 09:18:20;;;;;;;10.60;7.22;;;21.50;94.70;;;;;;5100461;28;20428;-75
2021/06/11 09:20:46;;;;;;;12.07;7.18;;;21.50;94.60;;;;;;5104586;28;20473;-76
2021/06/11 09:23:12;;;;;;;10.50;6.35;;;21.50;94.60;;;;;;5101974;28;20438;-76
2021/06/11 09:25:41;;;;;;;10.18;6.50;;;21.60;94.60;;;;;;5105516;28;20420;-74
2021/06/11 09:28:10;;;;;;;11.13;6.40;;;21.70;94.60;;;;;;5102466;28;20430;-74
2021/06/11 09:30:49;;;;;;;8.85;6.03;;;21.70;94.60;;;;;;5101004;28;20444;-73
2021/06/11 09:33:18;;;;;;;11.13;6.30;;;21.80;94.20;;;;;;5102002;28;20424;-76
2021/06/11 09:35:48;;;;;;;9.73;6.30;;;21.90;94.20;;;;;;5104150;28;20415;-76
2021/06/11 09:38:20;;;;;;;10.63;6.25;;;21.90;94.20;;;;;;5101992;28;20478;-76
2021/06/11 09:40:50;;;;;;;11.10;6.30;;;21.90;93.90;;;;;;5105621;28;20419;-77
2021/06/11 09:43:18;;;;;;;15.75;6.30;;;22.00;93.90;;;;;;5102497;28;20424;-74
2021/06/11 09:45:58;;;;;;;11.77;5.97;;;22.00;94.00;;;;;;5104159;28;20492;-75
2021/06/11 09:48:28;;;;;;;13.17;5.90;;;22.00;93.90;;;;;;5102300;28;20923;-75
2021/06/11 09:50:55;;;;;;;10.63;6.45;;;22.00;93.70;;;;;;5099816;28;20441;-74
2021/06/11 09:53:28;;;;;;;10.23;6.45;;;22.10;93.60;;;;;;5104552;28;20430;-74
2021/06/11 09:55:57;;;;;;;12.88;6.90;;;22.10;93.50;;;;;;5101544;28;20423;-75
2021/06/11 09:58:26;;;;;;;15.52;6.97;;;22.10;93.50;;;;;;5099987;28;20902;-74
2021/06/11 10:00:55;;;;;;;13.38;6.93;;;22.10;93.50;;;;;;5098395;28;20447;-74
2021/06/11 10:03:24;;;;;;;12.25;6.65;;;22.10;93.40;;;;;;5099653;28;20454;-75
2021/06/11 10:05:53;;;;;;;13.52;6.25;;;22.10;93.40;;;;;;5102708;28;20780;-75
2021/06/11 10:08:21;;;;;;;12.13;6.18;;;22.10;93.20;;;;;;5103994;28;20424;-74
2021/06/11 10:10:51;;;;;;;10.85;6.60;;;22.10;93.20;;;;;;5104131;28;20408;-75
2021/06/11 10:13:19;;;;;;;10.45;7.30;;;22.10;93.20;;;;;;5106141;28;20419;-75
2021/06/11 10:15:47;;;;;;;9.07;6.18;;;22.10;92.80;;;;;;5106811;28;20842;-74
2021/06/11 10:18:14;;;;;;;8.07;6.15;;;22.10;92.90;;;;;;5106537;28;20459;-73
2021/06/11 10:20:42;;;;;;;9.55;6.00;;;22.20;92.70;;;;;;5106193;28;20454;-75
2021/06/11 10:23:11;;;;;;;8.63;5.45;;;22.20;92.40;;;;;;5106444;28;20419;-74
2021/06/11 10:25:41;;;;;;;8.93;5.50;;;22.20;92.20;;;;;;5104778;28;20433;-75
2021/06/11 10:28:11;;;;;;;13.20;6.10;;;22.20;91.90;;;;;;5104420;28;20424;-74
2021/06/11 10:30:37;;;;;;;12.85;6.10;;;22.20;91.60;;;;;;5109077;28;20430;-74
2021/06/11 10:33:04;;;;;;;10.68;6.20;;;22.20;91.60;;;;;;5105374;27;20960;-72
2021/06/11 10:35:41;;;;;;;10.45;6.30;;;22.20;91.50;;;;;;5103052;28;20417;-74
2021/06/11 10:38:13;;;;;;;10.82;6.70;;;22.10;91.50;;;;;;5103379;28;20792;-74
2021/06/11 10:40:40;;;;;;;15.23;6.80;;;22.00;91.60;;;;;;5102237;28;20422;-75
2021/06/11 10:43:25;;;;;;;12.55;6.82;;;21.90;91.50;;;;;;5103483;28;20427;-73
2021/06/11 10:45:52;;;;;;;13.52;6.65;;;21.70;91.50;;;;;;5108371;28;20423;-74
2021/06/11 10:48:19;;;;;;;12.73;7.00;;;21.60;91.90;;;;;;5107260;28;20420;-74
2021/06/11 10:50:46;;;;;;;10.27;7.03;;;21.50;91.90;;;;;;5108479;28;20428;-73
2021/06/11 10:53:27;;;;;;;11.77;7.00;;;21.40;92.10;;;;;;5106538;28;20424;-74
2021/06/11 10:56:13;;;;;;;12.20;7.80;;;21.40;92.10;;;;;;5105713;28;20431;-72
2021/06/11 10:58:40;;;;;;;10.30;6.90;;;21.30;92.30;;;;;;5106434;28;20420;-72
2021/06/11 11:01:24;;;;;;;10.23;7.10;;;21.30;92.30;;;;;;5107722;28;21015;-73
2021/06/11 11:03:51;;;;;;;10.30;7.15;;;21.20;92.20;;;;;;5103994;28;20433;-72
2021/06/11 11:06:34;;;;;;;11.13;7.13;;;21.20;92.50;;;;;;5105234;28;20463;-73
2021/06/11 11:09:05;;;;;;;9.43;6.47;;;21.20;92.50;;;;;;5103288;28;20939;-73
2021/06/11 11:11:58;;;;;;;10.77;6.35;;;21.20;92.30;;;;;;5103603;28;20420;-73
2021/06/11 11:14:40;;;;;;;9.63;6.27;;;21.10;92.50;;;;;;5102344;28;20436;-72
2021/06/11 11:17:07;;;;;;;8.73;6.53;;;21.20;92.70;;;;;;5102898;28;20750;-73
2021/06/11 11:19:49;;;;;;;8.82;6.10;;;21.20;92.70;;;;;;5105886;28;20439;-75
2021/06/11 11:22:30;;;;;;;9.43;6.00;;;21.30;93.00;;;;;;5101408;28;21168;-73
2021/06/11 11:25:01;;;;;;;11.05;6.40;;;21.30;92.60;;;;;;5108612;28;20859;-72
2021/06/11 11:27:27;;;;;;;8.15;5.85;;;21.40;92.50;;;;;;5105231;28;20469;-73
2021/06/11 11:29:54;;;;;;;8.60;6.03;;;21.40;92.50;;;;;;5106857;28;20754;-72
2021/06/11 11:32:21;;;;;;;7.47;5.68;;;21.50;92.20;;;;;;5105548;28;20452;-72
2021/06/11 11:34:48;;;;;;;6.80;5.35;;;21.50;92.30;;;;;;5104122;28;20904;-74
2021/06/11 11:37:15;;;;;;;6.07;5.25;;;21.60;92.30;;;;;;5103944;28;20428;-74
2021/06/11 11:39:42;;;;;;;8.13;5.10;;;21.70;91.90;;;;;;5103624;28;20459;-71
2021/06/11 11:42:12;;;;;;;8.85;5.82;;;21.80;91.80;;;;;;5105512;28;20431;-73
2021/06/11 11:44:38;;;;;;;9.43;6.03;;;21.80;91.50;;;;;;5103731;28;20433;-71
2021/06/11 11:47:05;;;;;;;8.02;5.65;;;21.90;91.20;;;;;;5104891;28;20788;-74
2021/06/11 11:49:32;;;;;;;9.18;6.00;;;22.00;91.10;;;;;;5107796;28;20424;-76
2021/06/11 11:52:01;;;;;;;10.67;6.57;;;22.00;91.00;;;;;;5104398;28;20440;-74
2021/06/11 11:54:27;;;;;;;9.30;6.40;;;22.10;90.80;;;;;;5105434;28;20439;-72
2021/06/11 11:56:54;;;;;;;9.70;6.47;;;22.20;90.70;;;;;;5102140;27;20424;-73
2021/06/11 11:59:22;;;;;;;10.90;6.25;;;22.20;90.70;;;;;;5104300;28;20424;-75
2021/06/11 12:01:48;;;;;;;10.40;6.65;;;22.40;90.50;;;;;;5103400;28;20469;-74
2021/06/11 12:04:14;;;;;;;10.27;6.82;;;22.40;90.20;;;;;;5104770;28;20938;-73
2021/06/11 12:06:43;;;;;;;9.88;6.65;;;22.50;90.10;;;;;;5104330;28;20424;-74
2021/06/11 12:09:09;;;;;;;15.77;6.97;;;22.60;90.00;;;;;;5104172;28;20420;-72
2021/06/11 12:11:36;;;;;;;9.35;6.63;;;22.70;89.60;;;;;;5102414;28;22254;-77
2021/06/11 12:14:03;;;;;;;10.95;6.93;;;22.80;89.30;;;;;;5102899;28;20420;-75
2021/06/11 12:16:32;;;;;;;17.10;7.88;;;22.90;88.90;;;;;;5102861;28;20420;-75
2021/06/11 12:18:58;;;;;;;10.30;7.05;;;23.00;88.50;;;;;;5101935;28;21007;-73
2021/06/11 12:21:25;;;;;;;11.35;7.30;;;23.00;88.70;;;;;;5104467;28;20424;-74
2021/06/11 12:23:51;;;;;;;14.80;8.02;;;23.10;87.80;;;;;;5104399;28;20555;-72
2021/06/11 12:26:18;;;;;;;19.75;8.82;;;23.20;87.60;;;;;;5106394;28;20428;-75
2021/06/11 12:28:45;;;;;;;18.40;9.05;;;23.30;87.30;;;;;;5104422;28;20900;-75
2021/06/11 12:31:11;;;;;;;16.40;9.15;;;23.40;87.60;;;;;;5106146;28;20431;-72
2021/06/11 12:33:39;;;;;;;14.18;8.57;;;23.50;86.90;;;;;;5102498;28;20423;-75
2021/06/11 12:36:06;;;;;;;15.75;8.35;;;23.50;86.70;;;;;;5104579;28;20427;-74